Tuesday, December 18, 2018, 1:04 PM EST
Back to Local

KLEW, Auburn-lewiston

Location: Auburn, ME, United States Lat: 44.05
Local Time: 1:04 PM EST (18:04 GMT) Lon: -70.283
Time Zone: US/Eastern Elev: 288 ft

Show me the last for .
Show Decoded

2018-12-18 11:56 METAR KLEW 181656Z AUTO 32026G31KT 10SM CLR M04/M12 A2975 RMK AO2 PK WND
                 32037/1638 SLP091 T10441122 FZRANO =
2018-12-18 10:56 METAR KLEW 181556Z AUTO 33020G29KT 10SM CLR M05/M13 A2974 RMK AO2 PK WND
                 32034/1504 SLP088 T10501128 FZRANO =
2018-12-18 09:56 METAR KLEW 181456Z AUTO 33022G34KT 10SM CLR M06/M13 A2973 RMK AO2 PK WND
                 33036/1440 SLP086 T10561128 53033 FZRANO =
2018-12-18 08:56 METAR KLEW 181356Z AUTO 33023G31KT 10SM CLR M06/M13 A2970 RMK AO2 PK WND
                 33032/1259 SLP076 T10611128 FZRANO =
2018-12-18 07:56 METAR KLEW 181256Z AUTO 32024G29KT 10SM FEW100 M06/M13 A2966 RMK AO2 PK WND
                 32030/1226 SLP062 T10611128 FZRANO =
2018-12-18 06:56 METAR KLEW 181156Z AUTO 32023G30KT 10SM BKN070 M06/M13 A2964 RMK AO2 PK WND
                 32030/1154 SLP053 70007 T10611128 11006 21061 51030 FZRANO =
2018-12-18 05:56 METAR KLEW 181056Z AUTO 32019G31KT 10SM BKN065 OVC085 M06/M13 A2961 RMK AO2 PK
                 WND 33032/1009 SLP044 T10611128 FZRANO =
2018-12-18 04:56 METAR KLEW 180956Z AUTO 33016G25KT 10SM FEW090 OVC110 M06/M13 A2958 RMK AO2 PK
                 WND 33031/0930 SLP033 T10611128 FZRANO =
2018-12-18 03:56 METAR KLEW 180856Z AUTO 33018G32KT 10SM OVC110 M06/M12 A2955 RMK AO2 PK WND
                 33032/0850 SLP021 T10561122 53031 FZRANO =
2018-12-18 02:56 METAR KLEW 180756Z AUTO 33015G22KT 10SM OVC110 M04/M11 A2951 RMK AO2 PK WND
                 33029/0704 SLP009 T10391106 FZRANO =
2018-12-18 01:56 METAR KLEW 180656Z AUTO 32022G29KT 10SM OVC090 M03/M09 A2948 RMK AO2 PK WND
                 33032/0624 SLP999 T10281094 FZRANO =
2018-12-18 00:56 METAR KLEW 180556Z AUTO 32010KT 10SM BKN039 OVC085 M01/M06 A2945 RMK AO2 PK WND
                 33031/0458 SLP990 60000 T10061056 10011 21006 55000 FZRANO =
2018-12-17 23:56 METAR KLEW 180456Z AUTO 32018G28KT 10SM SCT090 OVC120 01/M06 A2943 RMK AO2 PK
                 WND 30028/0453 SLP981 T00061061 FZRANO =
2018-12-17 22:56 METAR KLEW 180356Z AUTO 31011G18KT 10SM BKN040 BKN055 OVC120 01/M04 A2943 RMK
                 AO2 RAB12E56 SLP981 P0000 T00111044 400171011 FZRANO =
2018-12-17 21:56 METAR KLEW 180256Z AUTO 31007KT 10SM OVC040 01/M03 A2945 RMK AO2 SLP990
                 T00111033 56005 FZRANO =
2018-12-17 20:56 METAR KLEW 180156Z AUTO 30004KT 10SM OVC038 01/M02 A2945 RMK AO2 SLP989
                 T00061022 FZRANO =
2018-12-17 19:56 METAR KLEW 180056Z AUTO 31007KT 10SM BKN044 OVC050 01/M03 A2946 RMK AO2 SLP993
                 T00111028 FZRANO =
2018-12-17 18:56 METAR KLEW 172356Z AUTO 30009KT 10SM OVC040 01/M02 A2947 RMK AO2 RAB03E20 SLP995
                 P0000 60001 T00111022 10017 20006 53001 FZRANO =
2018-12-17 18:25 METAR KLEW 172325Z AUTO 31007KT 10SM FEW023 BKN030 OVC041 01/M01 A2947 RMK AO2
                 RAB03E20 P0000 FZRANO =
2018-12-17 18:10 METAR KLEW 172310Z AUTO 32010KT 10SM -RA FEW022 BKN028 OVC043 01/00 A2946 RMK
                 AO2 RAB03 P0000 FZRANO =
2018-12-17 17:56 METAR KLEW 172256Z AUTO 32004KT 10SM SCT030 BKN038 OVC048 01/00 A2946 RMK AO2
                 SLP993 T00060000 FZRANO =
2018-12-17 16:56 METAR KLEW 172156Z AUTO 31003KT 10SM OVC060 01/00 A2946 RMK AO2 SLP993 T00110000
                 FZRANO =
2018-12-17 15:56 METAR KLEW 172056Z AUTO 30005KT 10SM OVC055 02/01 A2947 RMK AO2 SLP995 60001
                 T00170006 56004 FZRANO =
2018-12-17 14:56 METAR KLEW 171956Z AUTO 32004KT 10SM FEW019 SCT044 OVC050 02/01 A2947 RMK AO2
                 SLP994 T00170006 FZRANO =
2018-12-17 14:41 METAR KLEW 171941Z AUTO 33005KT 10SM SCT021 BKN030 OVC041 02/01 A2947 RMK AO2
                 FZRANO =
2018-12-17 14:06 METAR KLEW 171906Z AUTO 33004KT 10SM SCT006 OVC027 02/01 A2947 RMK AO2 FZRANO =
2018-12-17 13:56 METAR KLEW 171856Z AUTO 32004KT 10SM BKN006 OVC025 02/01 A2948 RMK AO2 RAE40 CIG
                 003V007 SLP998 P0001 T00170006 FZRANO =
2018-12-17 13:51 METAR KLEW 171851Z AUTO 34004KT 10SM BKN006 OVC023 02/01 A2948 RMK AO2 RAE40 CIG
                 003V009 P0001 FZRANO =
2018-12-17 13:23 METAR KLEW 171823Z AUTO 32006KT 10SM -RA BKN004 BKN011 OVC018 01/01 A2949 RMK
                 AO2 CIG 003V007 P0001 FZRANO =
2018-12-17 13:13 METAR KLEW 171813Z AUTO 33004KT 10SM -RA SCT004 BKN011 OVC018 01/01 A2949 RMK
                 AO2 P0001 FZRANO =

Support USWX by starting your Amazon purchase here.